sensor_id;sensor_type;location;lat;lon;timestamp;P1;durP1;ratioP1;P2;durP2;ratioP2
11817;SDS011;5966;52.402;5.322;2022-08-21T00:01:53;5.93;;;4.10;;
11817;SDS011;5966;52.402;5.322;2022-08-21T00:04:22;6.00;;;3.80;;
11817;SDS011;5966;52.402;5.322;2022-08-21T00:06:54;7.33;;;3.80;;
11817;SDS011;5966;52.402;5.322;2022-08-21T00:09:22;4.13;;;3.23;;
11817;SDS011;5966;52.402;5.322;2022-08-21T00:11:51;5.07;;;3.40;;
11817;SDS011;5966;52.402;5.322;2022-08-21T00:14:20;5.23;;;3.60;;
11817;SDS011;5966;52.402;5.322;2022-08-21T00:16:48;4.20;;;3.30;;
11817;SDS011;5966;52.402;5.322;2022-08-21T00:19:17;4.03;;;3.63;;
11817;SDS011;5966;52.402;5.322;2022-08-21T00:21:46;6.23;;;3.60;;
11817;SDS011;5966;52.402;5.322;2022-08-21T00:24:15;6.13;;;3.90;;
11817;SDS011;5966;52.402;5.322;2022-08-21T00:26:42;7.60;;;3.83;;
11817;SDS011;5966;52.402;5.322;2022-08-21T00:29:11;5.63;;;4.10;;
11817;SDS011;5966;52.402;5.322;2022-08-21T00:31:43;6.40;;;3.83;;
11817;SDS011;5966;52.402;5.322;2022-08-21T00:34:12;7.67;;;4.00;;
11817;SDS011;5966;52.402;5.322;2022-08-21T00:36:41;5.47;;;3.57;;
11817;SDS011;5966;52.402;5.322;2022-08-21T00:39:09;5.67;;;4.07;;
11817;SDS011;5966;52.402;5.322;2022-08-21T00:41:38;5.93;;;4.10;;
11817;SDS011;5966;52.402;5.322;2022-08-21T00:44:07;5.17;;;4.03;;
11817;SDS011;5966;52.402;5.322;2022-08-21T00:46:38;8.23;;;4.33;;
11817;SDS011;5966;52.402;5.322;2022-08-21T00:49:09;5.80;;;3.50;;
11817;SDS011;5966;52.402;5.322;2022-08-21T00:51:40;7.37;;;4.00;;
11817;SDS011;5966;52.402;5.322;2022-08-21T00:54:14;6.67;;;4.53;;
11817;SDS011;5966;52.402;5.322;2022-08-21T00:56:45;5.70;;;3.90;;
11817;SDS011;5966;52.402;5.322;2022-08-21T00:59:16;5.37;;;4.10;;
11817;SDS011;5966;52.402;5.322;2022-08-21T01:01:45;6.43;;;3.70;;
11817;SDS011;5966;52.402;5.322;2022-08-21T01:04:15;5.40;;;3.53;;
11817;SDS011;5966;52.402;5.322;2022-08-21T01:06:43;8.67;;;3.93;;
11817;SDS011;5966;52.402;5.322;2022-08-21T01:09:12;5.77;;;3.90;;
11817;SDS011;5966;52.402;5.322;2022-08-21T01:11:40;6.47;;;4.17;;
11817;SDS011;5966;52.402;5.322;2022-08-21T01:14:09;5.87;;;3.60;;
11817;SDS011;5966;52.402;5.322;2022-08-21T01:16:39;5.70;;;3.77;;
11817;SDS011;5966;52.402;5.322;2022-08-21T01:19:10;7.53;;;3.80;;
11817;SDS011;5966;52.402;5.322;2022-08-21T01:21:40;5.13;;;3.77;;
11817;SDS011;5966;52.402;5.322;2022-08-21T01:24:09;5.97;;;3.67;;
11817;SDS011;5966;52.402;5.322;2022-08-21T01:26:38;4.67;;;3.63;;
11817;SDS011;5966;52.402;5.322;2022-08-21T01:29:09;6.17;;;3.73;;
11817;SDS011;5966;52.402;5.322;2022-08-21T01:31:40;4.50;;;3.00;;
11817;SDS011;5966;52.402;5.322;2022-08-21T01:34:08;6.33;;;3.67;;
11817;SDS011;5966;52.402;5.322;2022-08-21T01:36:37;7.00;;;3.50;;
11817;SDS011;5966;52.402;5.322;2022-08-21T01:39:06;5.20;;;3.30;;
11817;SDS011;5966;52.402;5.322;2022-08-21T01:41:35;7.47;;;3.53;;
11817;SDS011;5966;52.402;5.322;2022-08-21T01:44:03;3.33;;;3.03;;
11817;SDS011;5966;52.402;5.322;2022-08-21T01:46:31;4.53;;;3.23;;
11817;SDS011;5966;52.402;5.322;2022-08-21T01:48:59;5.53;;;3.10;;
11817;SDS011;5966;52.402;5.322;2022-08-21T01:51:28;4.17;;;3.17;;
11817;SDS011;5966;52.402;5.322;2022-08-21T01:53:56;5.00;;;3.37;;
11817;SDS011;5966;52.402;5.322;2022-08-21T01:56:25;5.67;;;3.43;;
11817;SDS011;5966;52.402;5.322;2022-08-21T01:58:54;4.17;;;2.93;;
11817;SDS011;5966;52.402;5.322;2022-08-21T02:01:22;3.70;;;2.70;;
11817;SDS011;5966;52.402;5.322;2022-08-21T02:03:50;4.33;;;3.13;;
11817;SDS011;5966;52.402;5.322;2022-08-21T02:06:18;4.93;;;2.47;;
11817;SDS011;5966;52.402;5.322;2022-08-21T02:08:46;4.80;;;3.10;;
11817;SDS011;5966;52.402;5.322;2022-08-21T02:11:16;5.40;;;2.93;;
11817;SDS011;5966;52.402;5.322;2022-08-21T02:13:46;4.83;;;3.00;;
11817;SDS011;5966;52.402;5.322;2022-08-21T02:16:14;4.03;;;2.83;;
11817;SDS011;5966;52.402;5.322;2022-08-21T02:18:44;7.13;;;3.13;;
11817;SDS011;5966;52.402;5.322;2022-08-21T02:21:13;4.53;;;2.93;;
11817;SDS011;5966;52.402;5.322;2022-08-21T02:23:41;5.73;;;3.33;;
11817;SDS011;5966;52.402;5.322;2022-08-21T02:26:09;5.33;;;3.40;;
11817;SDS011;5966;52.402;5.322;2022-08-21T02:28:37;5.23;;;3.00;;
11817;SDS011;5966;52.402;5.322;2022-08-21T02:31:06;3.90;;;3.17;;
11817;SDS011;5966;52.402;5.322;2022-08-21T02:33:34;5.63;;;2.80;;
11817;SDS011;5966;52.402;5.322;2022-08-21T02:36:03;5.43;;;3.17;;
11817;SDS011;5966;52.402;5.322;2022-08-21T02:38:32;7.50;;;3.20;;
11817;SDS011;5966;52.402;5.322;2022-08-21T02:41:04;6.43;;;2.90;;
11817;SDS011;5966;52.402;5.322;2022-08-21T02:46:07;6.20;;;3.33;;
11817;SDS011;5966;52.402;5.322;2022-08-21T02:48:39;4.37;;;2.97;;
11817;SDS011;5966;52.402;5.322;2022-08-21T02:51:08;4.73;;;3.30;;
11817;SDS011;5966;52.402;5.322;2022-08-21T02:53:39;5.23;;;2.97;;
11817;SDS011;5966;52.402;5.322;2022-08-21T02:56:09;5.97;;;2.97;;
11817;SDS011;5966;52.402;5.322;2022-08-21T02:58:40;4.07;;;3.00;;
11817;SDS011;5966;52.402;5.322;2022-08-21T03:01:11;6.30;;;3.20;;
11817;SDS011;5966;52.402;5.322;2022-08-21T03:03:41;6.83;;;3.20;;
11817;SDS011;5966;52.402;5.322;2022-08-21T03:06:12;6.47;;;3.47;;
11817;SDS011;5966;52.402;5.322;2022-08-21T03:08:42;6.23;;;3.23;;
11817;SDS011;5966;52.402;5.322;2022-08-21T03:11:12;5.53;;;3.20;;
11817;SDS011;5966;52.402;5.322;2022-08-21T03:13:41;5.90;;;2.67;;
11817;SDS011;5966;52.402;5.322;2022-08-21T03:16:11;4.63;;;2.83;;
11817;SDS011;5966;52.402;5.322;2022-08-21T03:18:39;5.27;;;3.23;;
11817;SDS011;5966;52.402;5.322;2022-08-21T03:21:07;5.40;;;3.30;;
11817;SDS011;5966;52.402;5.322;2022-08-21T03:23:35;4.93;;;3.03;;
11817;SDS011;5966;52.402;5.322;2022-08-21T03:26:06;5.20;;;3.10;;
11817;SDS011;5966;52.402;5.322;2022-08-21T03:28:36;4.80;;;3.13;;
11817;SDS011;5966;52.402;5.322;2022-08-21T03:31:04;3.87;;;2.93;;
11817;SDS011;5966;52.402;5.322;2022-08-21T03:33:33;7.73;;;3.60;;
11817;SDS011;5966;52.402;5.322;2022-08-21T03:36:02;5.17;;;2.77;;
11817;SDS011;5966;52.402;5.322;2022-08-21T03:38:33;6.90;;;3.67;;
11817;SDS011;5966;52.402;5.322;2022-08-21T03:41:02;4.97;;;3.03;;
11817;SDS011;5966;52.402;5.322;2022-08-21T03:43:33;4.43;;;2.70;;
11817;SDS011;5966;52.402;5.322;2022-08-21T03:46:01;5.77;;;3.17;;
11817;SDS011;5966;52.402;5.322;2022-08-21T03:48:30;5.07;;;2.90;;
11817;SDS011;5966;52.402;5.322;2022-08-21T03:51:00;6.30;;;2.97;;
11817;SDS011;5966;52.402;5.322;2022-08-21T03:53:29;5.20;;;3.10;;
11817;SDS011;5966;52.402;5.322;2022-08-21T03:55:57;4.43;;;3.07;;
11817;SDS011;5966;52.402;5.322;2022-08-21T03:58:25;5.30;;;3.33;;
11817;SDS011;5966;52.402;5.322;2022-08-21T04:00:55;5.37;;;3.07;;
11817;SDS011;5966;52.402;5.322;2022-08-21T04:03:25;6.97;;;3.13;;
11817;SDS011;5966;52.402;5.322;2022-08-21T04:05:53;4.03;;;2.80;;
11817;SDS011;5966;52.402;5.322;2022-08-21T04:08:23;4.93;;;3.27;;
11817;SDS011;5966;52.402;5.322;2022-08-21T04:10:51;6.43;;;3.30;;
11817;SDS011;5966;52.402;5.322;2022-08-21T04:13:21;7.73;;;3.67;;
11817;SDS011;5966;52.402;5.322;2022-08-21T04:15:49;8.43;;;3.70;;
11817;SDS011;5966;52.402;5.322;2022-08-21T04:18:17;6.37;;;3.27;;
11817;SDS011;5966;52.402;5.322;2022-08-21T04:20:46;6.23;;;3.33;;
11817;SDS011;5966;52.402;5.322;2022-08-21T04:23:17;5.60;;;3.17;;
11817;SDS011;5966;52.402;5.322;2022-08-21T04:25:51;5.43;;;3.47;;
11817;SDS011;5966;52.402;5.322;2022-08-21T04:28:20;5.23;;;2.87;;
11817;SDS011;5966;52.402;5.322;2022-08-21T04:30:55;5.80;;;3.50;;
11817;SDS011;5966;52.402;5.322;2022-08-21T04:33:23;6.93;;;3.67;;
11817;SDS011;5966;52.402;5.322;2022-08-21T04:35:52;4.93;;;3.40;;
11817;SDS011;5966;52.402;5.322;2022-08-21T04:38:20;6.87;;;3.03;;
11817;SDS011;5966;52.402;5.322;2022-08-21T04:40:49;6.63;;;3.80;;
11817;SDS011;5966;52.402;5.322;2022-08-21T04:43:19;4.80;;;3.23;;
11817;SDS011;5966;52.402;5.322;2022-08-21T04:45:49;6.10;;;3.23;;
11817;SDS011;5966;52.402;5.322;2022-08-21T04:48:20;8.10;;;4.87;;
11817;SDS011;5966;52.402;5.322;2022-08-21T04:50:52;5.70;;;3.53;;
11817;SDS011;5966;52.402;5.322;2022-08-21T04:53:25;6.37;;;4.00;;
11817;SDS011;5966;52.402;5.322;2022-08-21T04:56:00;5.70;;;3.53;;
11817;SDS011;5966;52.402;5.322;2022-08-21T04:58:31;8.43;;;3.87;;
11817;SDS011;5966;52.402;5.322;2022-08-21T05:00:59;3.83;;;3.47;;
11817;SDS011;5966;52.402;5.322;2022-08-21T05:03:28;7.20;;;3.73;;
11817;SDS011;5966;52.402;5.322;2022-08-21T05:05:57;8.50;;;4.03;;
11817;SDS011;5966;52.402;5.322;2022-08-21T05:08:26;7.33;;;3.77;;
11817;SDS011;5966;52.402;5.322;2022-08-21T05:10:55;9.17;;;4.13;;
11817;SDS011;5966;52.402;5.322;2022-08-21T05:13:27;8.20;;;4.10;;
11817;SDS011;5966;52.402;5.322;2022-08-21T05:15:55;4.93;;;3.73;;
11817;SDS011;5966;52.402;5.322;2022-08-21T05:18:24;6.50;;;4.00;;
11817;SDS011;5966;52.402;5.322;2022-08-21T05:20:52;8.43;;;3.90;;
11817;SDS011;5966;52.402;5.322;2022-08-21T05:23:20;5.47;;;3.87;;
11817;SDS011;5966;52.402;5.322;2022-08-21T05:25:48;7.90;;;3.97;;
11817;SDS011;5966;52.402;5.322;2022-08-21T05:28:16;10.40;;;4.10;;
11817;SDS011;5966;52.402;5.322;2022-08-21T05:30:46;5.47;;;3.67;;
11817;SDS011;5966;52.402;5.322;2022-08-21T05:33:15;5.07;;;3.53;;
11817;SDS011;5966;52.402;5.322;2022-08-21T05:35:43;6.03;;;3.30;;
11817;SDS011;5966;52.402;5.322;2022-08-21T05:38:11;5.20;;;3.73;;
11817;SDS011;5966;52.402;5.322;2022-08-21T05:40:43;5.40;;;3.63;;
11817;SDS011;5966;52.402;5.322;2022-08-21T05:43:12;5.13;;;3.80;;
11817;SDS011;5966;52.402;5.322;2022-08-21T05:45:41;5.80;;;3.60;;
11817;SDS011;5966;52.402;5.322;2022-08-21T05:48:12;6.70;;;3.87;;
11817;SDS011;5966;52.402;5.322;2022-08-21T05:50:43;12.93;;;4.10;;
11817;SDS011;5966;52.402;5.322;2022-08-21T05:53:12;6.07;;;3.57;;
11817;SDS011;5966;52.402;5.322;2022-08-21T05:55:42;6.30;;;3.53;;
11817;SDS011;5966;52.402;5.322;2022-08-21T05:58:13;4.97;;;3.60;;
11817;SDS011;5966;52.402;5.322;2022-08-21T06:00:42;7.70;;;3.60;;
11817;SDS011;5966;52.402;5.322;2022-08-21T06:03:13;6.63;;;3.57;;
11817;SDS011;5966;52.402;5.322;2022-08-21T06:05:43;7.63;;;3.53;;
11817;SDS011;5966;52.402;5.322;2022-08-21T06:08:12;6.43;;;3.47;;
11817;SDS011;5966;52.402;5.322;2022-08-21T06:10:40;5.90;;;3.40;;
11817;SDS011;5966;52.402;5.322;2022-08-21T06:13:08;5.90;;;2.93;;
11817;SDS011;5966;52.402;5.322;2022-08-21T06:15:37;5.57;;;3.10;;
11817;SDS011;5966;52.402;5.322;2022-08-21T06:18:05;6.90;;;3.53;;
11817;SDS011;5966;52.402;5.322;2022-08-21T06:20:35;5.03;;;3.13;;
11817;SDS011;5966;52.402;5.322;2022-08-21T06:23:04;8.27;;;3.63;;
11817;SDS011;5966;52.402;5.322;2022-08-21T06:25:32;5.87;;;3.03;;
11817;SDS011;5966;52.402;5.322;2022-08-21T06:28:00;8.20;;;3.30;;
11817;SDS011;5966;52.402;5.322;2022-08-21T06:30:31;9.10;;;3.33;;
11817;SDS011;5966;52.402;5.322;2022-08-21T06:33:05;7.97;;;3.47;;
11817;SDS011;5966;52.402;5.322;2022-08-21T06:35:35;9.30;;;3.30;;
11817;SDS011;5966;52.402;5.322;2022-08-21T06:38:06;6.97;;;2.97;;
11817;SDS011;5966;52.402;5.322;2022-08-21T06:40:35;5.80;;;2.70;;
11817;SDS011;5966;52.402;5.322;2022-08-21T06:43:13;7.40;;;3.47;;
11817;SDS011;5966;52.402;5.322;2022-08-21T06:45:43;9.13;;;3.57;;
11817;SDS011;5966;52.402;5.322;2022-08-21T06:48:12;6.37;;;3.03;;
11817;SDS011;5966;52.402;5.322;2022-08-21T06:50:46;7.10;;;2.83;;
11817;SDS011;5966;52.402;5.322;2022-08-21T06:53:15;6.67;;;3.20;;
11817;SDS011;5966;52.402;5.322;2022-08-21T06:55:44;5.87;;;3.20;;
11817;SDS011;5966;52.402;5.322;2022-08-21T06:58:12;8.30;;;2.90;;
11817;SDS011;5966;52.402;5.322;2022-08-21T07:00:41;6.77;;;3.17;;
11817;SDS011;5966;52.402;5.322;2022-08-21T07:03:15;6.93;;;3.10;;
11817;SDS011;5966;52.402;5.322;2022-08-21T07:05:46;9.77;;;3.43;;
11817;SDS011;5966;52.402;5.322;2022-08-21T07:08:14;6.87;;;2.80;;
11817;SDS011;5966;52.402;5.322;2022-08-21T07:10:43;6.63;;;3.13;;
11817;SDS011;5966;52.402;5.322;2022-08-21T07:13:12;6.70;;;2.97;;
11817;SDS011;5966;52.402;5.322;2022-08-21T07:15:40;8.43;;;3.00;;
11817;SDS011;5966;52.402;5.322;2022-08-21T07:18:08;6.63;;;3.00;;
11817;SDS011;5966;52.402;5.322;2022-08-21T07:20:36;9.37;;;3.03;;
11817;SDS011;5966;52.402;5.322;2022-08-21T07:23:06;7.80;;;3.10;;
11817;SDS011;5966;52.402;5.322;2022-08-21T07:25:36;5.13;;;2.73;;
11817;SDS011;5966;52.402;5.322;2022-08-21T07:28:04;6.83;;;2.67;;
11817;SDS011;5966;52.402;5.322;2022-08-21T07:30:32;7.90;;;3.10;;
11817;SDS011;5966;52.402;5.322;2022-08-21T07:33:00;7.83;;;3.30;;
11817;SDS011;5966;52.402;5.322;2022-08-21T07:35:28;9.83;;;3.50;;
11817;SDS011;5966;52.402;5.322;2022-08-21T07:37:57;8.20;;;3.07;;
11817;SDS011;5966;52.402;5.322;2022-08-21T07:40:26;11.17;;;3.70;;
11817;SDS011;5966;52.402;5.322;2022-08-21T07:42:54;7.90;;;3.10;;
11817;SDS011;5966;52.402;5.322;2022-08-21T07:45:22;5.20;;;2.70;;
11817;SDS011;5966;52.402;5.322;2022-08-21T07:47:52;9.87;;;2.77;;
11817;SDS011;5966;52.402;5.322;2022-08-21T07:50:22;8.20;;;3.00;;
11817;SDS011;5966;52.402;5.322;2022-08-21T07:52:51;9.30;;;3.13;;
11817;SDS011;5966;52.402;5.322;2022-08-21T07:55:19;9.75;;;2.85;;
11817;SDS011;5966;52.402;5.322;2022-08-21T07:57:49;6.90;;;2.63;;
11817;SDS011;5966;52.402;5.322;2022-08-21T08:00:18;7.40;;;3.00;;
11817;SDS011;5966;52.402;5.322;2022-08-21T08:02:49;7.73;;;3.13;;
11817;SDS011;5966;52.402;5.322;2022-08-21T08:05:19;7.63;;;2.78;;
11817;SDS011;5966;52.402;5.322;2022-08-21T08:07:48;8.90;;;3.60;;
11817;SDS011;5966;52.402;5.322;2022-08-21T08:10:16;8.10;;;2.90;;
11817;SDS011;5966;52.402;5.322;2022-08-21T08:12:46;8.90;;;2.88;;
11817;SDS011;5966;52.402;5.322;2022-08-21T08:15:16;5.10;;;2.50;;
11817;SDS011;5966;52.402;5.322;2022-08-21T08:17:46;11.37;;;3.20;;
11817;SDS011;5966;52.402;5.322;2022-08-21T08:20:15;7.40;;;2.85;;
11817;SDS011;5966;52.402;5.322;2022-08-21T08:22:46;9.70;;;3.20;;
11817;SDS011;5966;52.402;5.322;2022-08-21T08:25:25;7.60;;;2.77;;
11817;SDS011;5966;52.402;5.322;2022-08-21T08:28:01;5.97;;;2.58;;
11817;SDS011;5966;52.402;5.322;2022-08-21T08:30:43;7.75;;;3.00;;
11817;SDS011;5966;52.402;5.322;2022-08-21T08:33:11;8.40;;;3.03;;
11817;SDS011;5966;52.402;5.322;2022-08-21T08:35:40;6.72;;;2.80;;
11817;SDS011;5966;52.402;5.322;2022-08-21T08:38:09;7.43;;;3.22;;
11817;SDS011;5966;52.402;5.322;2022-08-21T08:40:38;10.00;;;3.17;;
11817;SDS011;5966;52.402;5.322;2022-08-21T08:43:11;8.38;;;2.92;;
11817;SDS011;5966;52.402;5.322;2022-08-21T08:45:41;6.97;;;3.22;;
11817;SDS011;5966;52.402;5.322;2022-08-21T08:48:14;9.50;;;3.05;;
11817;SDS011;5966;52.402;5.322;2022-08-21T08:50:56;8.65;;;2.60;;
11817;SDS011;5966;52.402;5.322;2022-08-21T08:53:30;8.65;;;3.40;;
11817;SDS011;5966;52.402;5.322;2022-08-21T08:56:10;10.85;;;3.20;;
11817;SDS011;5966;52.402;5.322;2022-08-21T08:58:59;7.43;;;2.85;;
11817;SDS011;5966;52.402;5.322;2022-08-21T09:01:50;7.80;;;3.20;;
11817;SDS011;5966;52.402;5.322;2022-08-21T09:04:22;8.10;;;3.43;;
11817;SDS011;5966;52.402;5.322;2022-08-21T09:07:01;5.72;;;2.72;;
11817;SDS011;5966;52.402;5.322;2022-08-21T09:09:51;8.87;;;3.07;;
11817;SDS011;5966;52.402;5.322;2022-08-21T09:12:37;7.57;;;2.97;;
11817;SDS011;5966;52.402;5.322;2022-08-21T09:15:16;8.43;;;3.20;;
11817;SDS011;5966;52.402;5.322;2022-08-21T09:17:58;7.18;;;4.00;;
11817;SDS011;5966;52.402;5.322;2022-08-21T09:20:53;13.80;;;3.42;;
11817;SDS011;5966;52.402;5.322;2022-08-21T09:23:33;9.50;;;2.97;;
11817;SDS011;5966;52.402;5.322;2022-08-21T09:26:12;6.80;;;2.72;;
11817;SDS011;5966;52.402;5.322;2022-08-21T09:28:43;8.20;;;3.08;;
11817;SDS011;5966;52.402;5.322;2022-08-21T09:31:19;7.97;;;3.15;;
11817;SDS011;5966;52.402;5.322;2022-08-21T09:34:00;9.23;;;2.95;;
11817;SDS011;5966;52.402;5.322;2022-08-21T09:36:33;9.23;;;3.47;;
11817;SDS011;5966;52.402;5.322;2022-08-21T09:39:23;8.82;;;3.22;;
11817;SDS011;5966;52.402;5.322;2022-08-21T09:41:57;8.55;;;2.67;;
11817;SDS011;5966;52.402;5.322;2022-08-21T09:44:27;9.43;;;2.93;;
11817;SDS011;5966;52.402;5.322;2022-08-21T09:46:58;7.88;;;2.78;;
11817;SDS011;5966;52.402;5.322;2022-08-21T09:49:31;6.63;;;3.08;;
11817;SDS011;5966;52.402;5.322;2022-08-21T09:52:02;8.85;;;2.70;;
11817;SDS011;5966;52.402;5.322;2022-08-21T09:54:58;5.72;;;2.50;;
11817;SDS011;5966;52.402;5.322;2022-08-21T09:58:12;10.73;;;3.40;;
11817;SDS011;5966;52.402;5.322;2022-08-21T10:01:05;6.28;;;2.50;;
11817;SDS011;5966;52.402;5.322;2022-08-21T10:04:08;8.57;;;3.08;;
11817;SDS011;5966;52.402;5.322;2022-08-21T10:06:51;6.03;;;2.60;;
11817;SDS011;5966;52.402;5.322;2022-08-21T10:09:23;7.93;;;2.78;;
11817;SDS011;5966;52.402;5.322;2022-08-21T10:11:55;7.55;;;3.00;;
11817;SDS011;5966;52.402;5.322;2022-08-21T10:14:40;6.78;;;2.85;;
11817;SDS011;5966;52.402;5.322;2022-08-21T10:17:17;7.63;;;3.65;;
11817;SDS011;5966;52.402;5.322;2022-08-21T10:19:55;9.88;;;3.25;;
11817;SDS011;5966;52.402;5.322;2022-08-21T10:22:34;8.65;;;3.10;;
11817;SDS011;5966;52.402;5.322;2022-08-21T10:25:11;8.73;;;3.40;;
11817;SDS011;5966;52.402;5.322;2022-08-21T10:27:47;6.38;;;3.47;;
11817;SDS011;5966;52.402;5.322;2022-08-21T10:30:27;7.35;;;2.90;;
11817;SDS011;5966;52.402;5.322;2022-08-21T10:33:18;6.78;;;3.38;;
11817;SDS011;5966;52.402;5.322;2022-08-21T10:35:57;6.70;;;4.63;;
11817;SDS011;5966;52.402;5.322;2022-08-21T10:38:41;6.90;;;3.20;;
11817;SDS011;5966;52.402;5.322;2022-08-21T10:41:44;6.82;;;2.78;;
11817;SDS011;5966;52.402;5.322;2022-08-21T10:44:26;4.40;;;2.97;;
11817;SDS011;5966;52.402;5.322;2022-08-21T10:47:00;7.80;;;2.85;;
11817;SDS011;5966;52.402;5.322;2022-08-21T10:49:34;7.90;;;3.17;;
11817;SDS011;5966;52.402;5.322;2022-08-21T10:52:16;6.73;;;2.53;;
11817;SDS011;5966;52.402;5.322;2022-08-21T10:55:04;8.02;;;3.13;;
11817;SDS011;5966;52.402;5.322;2022-08-21T10:57:38;7.50;;;3.15;;
11817;SDS011;5966;52.402;5.322;2022-08-21T11:00:11;7.00;;;2.92;;
11817;SDS011;5966;52.402;5.322;2022-08-21T11:02:44;7.55;;;2.72;;
11817;SDS011;5966;52.402;5.322;2022-08-21T11:05:17;6.05;;;2.83;;
11817;SDS011;5966;52.402;5.322;2022-08-21T11:07:53;6.68;;;2.85;;
11817;SDS011;5966;52.402;5.322;2022-08-21T11:10:28;7.60;;;2.90;;
11817;SDS011;5966;52.402;5.322;2022-08-21T11:13:01;6.65;;;2.63;;
11817;SDS011;5966;52.402;5.322;2022-08-21T11:15:39;7.10;;;2.95;;
11817;SDS011;5966;52.402;5.322;2022-08-21T11:18:15;5.57;;;2.67;;
11817;SDS011;5966;52.402;5.322;2022-08-21T11:20:50;9.10;;;4.20;;
11817;SDS011;5966;52.402;5.322;2022-08-21T11:23:28;5.10;;;2.67;;
11817;SDS011;5966;52.402;5.322;2022-08-21T11:26:06;6.13;;;2.53;;
11817;SDS011;5966;52.402;5.322;2022-08-21T11:28:40;6.85;;;2.22;;
11817;SDS011;5966;52.402;5.322;2022-08-21T11:31:18;6.72;;;2.90;;
11817;SDS011;5966;52.402;5.322;2022-08-21T11:34:03;6.47;;;2.50;;
11817;SDS011;5966;52.402;5.322;2022-08-21T11:36:41;8.05;;;2.80;;
11817;SDS011;5966;52.402;5.322;2022-08-21T11:39:20;4.22;;;2.20;;
11817;SDS011;5966;52.402;5.322;2022-08-21T11:41:57;6.25;;;2.13;;
11817;SDS011;5966;52.402;5.322;2022-08-21T11:44:38;4.70;;;2.17;;
11817;SDS011;5966;52.402;5.322;2022-08-21T11:47:15;4.45;;;1.85;;
11817;SDS011;5966;52.402;5.322;2022-08-21T11:49:55;8.02;;;2.55;;
11817;SDS011;5966;52.402;5.322;2022-08-21T11:52:38;8.60;;;2.75;;
11817;SDS011;5966;52.402;5.322;2022-08-21T11:55:11;6.32;;;2.33;;
11817;SDS011;5966;52.402;5.322;2022-08-21T11:57:52;5.60;;;2.15;;
11817;SDS011;5966;52.402;5.322;2022-08-21T12:00:22;4.53;;;1.65;;
11817;SDS011;5966;52.402;5.322;2022-08-21T12:02:56;4.65;;;2.08;;
11817;SDS011;5966;52.402;5.322;2022-08-21T12:05:33;5.63;;;1.80;;
11817;SDS011;5966;52.402;5.322;2022-08-21T12:08:06;6.43;;;2.08;;
11817;SDS011;5966;52.402;5.322;2022-08-21T12:10:40;8.80;;;3.47;;
11817;SDS011;5966;52.402;5.322;2022-08-21T12:13:20;5.57;;;2.40;;
11817;SDS011;5966;52.402;5.322;2022-08-21T12:16:08;4.38;;;2.10;;
11817;SDS011;5966;52.402;5.322;2022-08-21T12:18:39;5.80;;;2.10;;
11817;SDS011;5966;52.402;5.322;2022-08-21T12:21:17;5.65;;;1.80;;
11817;SDS011;5966;52.402;5.322;2022-08-21T12:23:57;6.18;;;1.77;;
11817;SDS011;5966;52.402;5.322;2022-08-21T12:26:29;8.65;;;2.60;;
11817;SDS011;5966;52.402;5.322;2022-08-21T12:29:04;6.38;;;3.00;;
11817;SDS011;5966;52.402;5.322;2022-08-21T12:31:50;5.93;;;2.10;;
11817;SDS011;5966;52.402;5.322;2022-08-21T12:34:21;2.58;;;1.27;;
11817;SDS011;5966;52.402;5.322;2022-08-21T12:36:53;5.70;;;2.20;;
11817;SDS011;5966;52.402;5.322;2022-08-21T12:39:25;5.38;;;1.80;;
11817;SDS011;5966;52.402;5.322;2022-08-21T12:41:56;5.15;;;1.80;;
11817;SDS011;5966;52.402;5.322;2022-08-21T12:44:30;6.07;;;1.60;;
11817;SDS011;5966;52.402;5.322;2022-08-21T12:47:05;4.68;;;1.73;;
11817;SDS011;5966;52.402;5.322;2022-08-21T12:49:43;3.80;;;1.85;;
11817;SDS011;5966;52.402;5.322;2022-08-21T12:52:19;6.80;;;1.83;;
11817;SDS011;5966;52.402;5.322;2022-08-21T12:54:50;7.30;;;1.83;;
11817;SDS011;5966;52.402;5.322;2022-08-21T12:57:19;6.13;;;1.80;;
11817;SDS011;5966;52.402;5.322;2022-08-21T12:59:53;5.38;;;1.95;;
11817;SDS011;5966;52.402;5.322;2022-08-21T13:02:24;3.00;;;1.40;;
11817;SDS011;5966;52.402;5.322;2022-08-21T13:04:55;4.82;;;1.85;;
11817;SDS011;5966;52.402;5.322;2022-08-21T13:07:26;4.30;;;1.70;;
11817;SDS011;5966;52.402;5.322;2022-08-21T13:09:58;4.45;;;1.85;;
11817;SDS011;5966;52.402;5.322;2022-08-21T13:12:29;4.43;;;2.47;;
11817;SDS011;5966;52.402;5.322;2022-08-21T13:15:00;4.63;;;2.03;;
11817;SDS011;5966;52.402;5.322;2022-08-21T13:17:35;3.70;;;1.90;;
11817;SDS011;5966;52.402;5.322;2022-08-21T13:20:06;4.93;;;1.83;;
11817;SDS011;5966;52.402;5.322;2022-08-21T13:22:40;3.50;;;1.77;;
11817;SDS011;5966;52.402;5.322;2022-08-21T13:25:10;5.72;;;1.83;;
11817;SDS011;5966;52.402;5.322;2022-08-21T13:27:38;4.97;;;1.80;;
11817;SDS011;5966;52.402;5.322;2022-08-21T13:30:09;5.53;;;1.70;;
11817;SDS011;5966;52.402;5.322;2022-08-21T13:32:41;6.07;;;2.05;;
11817;SDS011;5966;52.402;5.322;2022-08-21T13:35:12;3.20;;;1.63;;
11817;SDS011;5966;52.402;5.322;2022-08-21T13:37:44;4.60;;;1.70;;
11817;SDS011;5966;52.402;5.322;2022-08-21T13:40:14;5.38;;;2.20;;
11817;SDS011;5966;52.402;5.322;2022-08-21T13:42:46;3.55;;;1.52;;
11817;SDS011;5966;52.402;5.322;2022-08-21T13:45:18;7.03;;;2.25;;
11817;SDS011;5966;52.402;5.322;2022-08-21T13:47:51;3.75;;;1.48;;
11817;SDS011;5966;52.402;5.322;2022-08-21T13:50:21;3.58;;;1.60;;
11817;SDS011;5966;52.402;5.322;2022-08-21T13:52:59;5.15;;;2.08;;
11817;SDS011;5966;52.402;5.322;2022-08-21T13:55:35;5.55;;;1.90;;
11817;SDS011;5966;52.402;5.322;2022-08-21T13:58:06;3.47;;;1.63;;
11817;SDS011;5966;52.402;5.322;2022-08-21T14:00:43;5.05;;;1.85;;
11817;SDS011;5966;52.402;5.322;2022-08-21T14:03:13;3.75;;;2.03;;
11817;SDS011;5966;52.402;5.322;2022-08-21T14:05:54;6.82;;;2.13;;
11817;SDS011;5966;52.402;5.322;2022-08-21T14:08:26;5.13;;;1.67;;
11817;SDS011;5966;52.402;5.322;2022-08-21T14:10:58;5.50;;;1.55;;
11817;SDS011;5966;52.402;5.322;2022-08-21T14:13:29;5.13;;;1.77;;
11817;SDS011;5966;52.402;5.322;2022-08-21T14:16:11;3.35;;;1.67;;
11817;SDS011;5966;52.402;5.322;2022-08-21T14:18:43;5.15;;;1.70;;
11817;SDS011;5966;52.402;5.322;2022-08-21T14:21:13;4.90;;;1.98;;
11817;SDS011;5966;52.402;5.322;2022-08-21T14:23:58;5.55;;;1.88;;
11817;SDS011;5966;52.402;5.322;2022-08-21T14:26:28;3.97;;;1.38;;
11817;SDS011;5966;52.402;5.322;2022-08-21T14:28:58;5.57;;;2.47;;
11817;SDS011;5966;52.402;5.322;2022-08-21T14:31:36;6.50;;;2.03;;
11817;SDS011;5966;52.402;5.322;2022-08-21T14:34:09;5.75;;;1.90;;
11817;SDS011;5966;52.402;5.322;2022-08-21T14:36:45;4.35;;;1.45;;
11817;SDS011;5966;52.402;5.322;2022-08-21T14:39:14;5.28;;;1.90;;
11817;SDS011;5966;52.402;5.322;2022-08-21T14:41:42;3.00;;;1.73;;
11817;SDS011;5966;52.402;5.322;2022-08-21T14:44:12;5.45;;;1.98;;
11817;SDS011;5966;52.402;5.322;2022-08-21T14:46:41;7.10;;;1.88;;
11817;SDS011;5966;52.402;5.322;2022-08-21T14:49:21;5.22;;;3.20;;
11817;SDS011;5966;52.402;5.322;2022-08-21T14:51:49;7.40;;;2.08;;
11817;SDS011;5966;52.402;5.322;2022-08-21T14:54:23;3.95;;;1.65;;
11817;SDS011;5966;52.402;5.322;2022-08-21T14:56:57;4.05;;;1.85;;
11817;SDS011;5966;52.402;5.322;2022-08-21T14:59:27;5.30;;;1.80;;
11817;SDS011;5966;52.402;5.322;2022-08-21T15:01:56;3.60;;;1.77;;
11817;SDS011;5966;52.402;5.322;2022-08-21T15:04:24;5.85;;;2.30;;
11817;SDS011;5966;52.402;5.322;2022-08-21T15:06:52;4.32;;;1.83;;
11817;SDS011;5966;52.402;5.322;2022-08-21T15:09:20;8.30;;;1.92;;
11817;SDS011;5966;52.402;5.322;2022-08-21T15:11:48;3.45;;;1.60;;
11817;SDS011;5966;52.402;5.322;2022-08-21T15:14:17;4.10;;;1.70;;
11817;SDS011;5966;52.402;5.322;2022-08-21T15:16:53;5.35;;;1.58;;
11817;SDS011;5966;52.402;5.322;2022-08-21T15:19:24;5.55;;;1.77;;
11817;SDS011;5966;52.402;5.322;2022-08-21T15:21:52;4.45;;;1.75;;
11817;SDS011;5966;52.402;5.322;2022-08-21T15:24:20;8.90;;;3.60;;
11817;SDS011;5966;52.402;5.322;2022-08-21T15:26:48;5.68;;;1.80;;
11817;SDS011;5966;52.402;5.322;2022-08-21T15:29:16;3.55;;;1.55;;
11817;SDS011;5966;52.402;5.322;2022-08-21T15:31:52;5.72;;;2.05;;
11817;SDS011;5966;52.402;5.322;2022-08-21T15:34:24;6.10;;;2.35;;